Time;durP1;ratioP1;P1;durP2;ratioP2;P2;SDS_P1;SDS_P2;PMS_P1;PMS_P2;Temp;Humidity;BMP_temperature;BMP_pressure;BME280_temperature;BME280_humidity;BME280_pressure;Samples;Min_cycle;Max_cycle;Signal;HPM_P1;HPM_P2
2022/08/17 00:01:30;;;;;;;12.87;7.87;;;21.50;69.10;;;;;;5020517;28;20858;-72
2022/08/17 00:03:56;;;;;;;11.13;8.80;;;21.50;69.10;;;;;;5013394;28;20422;-72
2022/08/17 00:06:26;;;;;;;13.83;7.93;;;21.40;69.50;;;;;;5018979;28;20204;-71
2022/08/17 00:09:02;;;;;;;15.57;7.50;;;21.40;70.10;;;;;;5019616;28;20470;-72
2022/08/17 00:11:35;;;;;;;12.20;7.90;;;21.50;69.80;;;;;;5002391;28;20453;-72
2022/08/17 00:14:13;;;;;;;11.30;7.80;;;21.40;69.80;;;;;;5021633;28;20960;-70
2022/08/17 00:16:46;;;;;;;12.37;7.53;;;21.30;69.90;;;;;;5014564;28;20446;-72
2022/08/17 00:19:15;;;;;;;10.67;7.40;;;21.30;70.20;;;;;;5020246;28;20624;-71
2022/08/17 00:21:44;;;;;;;11.53;7.73;;;21.20;70.20;;;;;;5015147;28;20427;-72
2022/08/17 00:24:10;;;;;;;9.57;7.23;;;21.20;70.10;;;;;;5021519;28;20436;-71
2022/08/17 00:26:35;;;;;;;10.37;7.03;;;21.20;70.50;;;;;;5023287;28;20634;-74
2022/08/17 00:29:01;;;;;;;11.50;6.97;;;21.10;70.70;;;;;;5027142;28;21113;-71
2022/08/17 00:31:27;;;;;;;9.00;7.30;;;21.10;71.00;;;;;;5021712;28;20195;-71
2022/08/17 00:33:53;;;;;;;10.10;6.90;;;21.10;70.70;;;;;;5048950;28;20182;-71
2022/08/17 00:36:19;;;;;;;8.43;6.90;;;21.00;69.90;;;;;;5045044;28;20425;-72
2022/08/17 00:38:44;;;;;;;11.40;8.00;;;21.00;70.20;;;;;;5047614;28;20582;-71
2022/08/17 00:41:15;;;;;;;8.40;6.43;;;20.90;70.50;;;;;;5040915;28;20424;-71
2022/08/17 00:43:49;;;;;;;10.17;7.40;;;21.00;70.10;;;;;;5041041;28;20210;-71
2022/08/17 00:46:19;;;;;;;9.30;7.50;;;21.10;70.10;;;;;;5049061;28;20429;-72
2022/08/17 00:48:46;;;;;;;10.57;7.10;;;21.00;70.10;;;;;;5037184;28;20490;-72
2022/08/17 00:51:19;;;;;;;11.03;7.17;;;21.10;70.10;;;;;;5050226;28;20999;-70
2022/08/17 00:53:52;;;;;;;11.20;7.70;;;21.10;70.40;;;;;;5041098;28;20437;-71
2022/08/17 00:56:23;;;;;;;11.67;7.73;;;21.00;70.40;;;;;;5043434;28;20417;-71
2022/08/17 00:58:50;;;;;;;10.93;8.00;;;20.90;70.80;;;;;;5049868;28;20456;-72
2022/08/17 01:01:16;;;;;;;10.37;7.03;;;20.90;70.80;;;;;;5050884;28;20428;-71
2022/08/17 01:03:42;;;;;;;10.23;7.77;;;20.80;71.30;;;;;;5040186;28;20481;-71
2022/08/17 01:06:09;;;;;;;11.50;8.47;;;20.80;71.60;;;;;;5035327;28;20429;-71
2022/08/17 01:08:37;;;;;;;13.40;8.50;;;20.70;71.70;;;;;;5044528;28;20452;-73
2022/08/17 01:11:04;;;;;;;12.30;8.00;;;20.60;72.30;;;;;;5045597;28;20780;-72
2022/08/17 01:13:38;;;;;;;10.50;7.30;;;20.70;72.00;;;;;;5046106;28;20812;-72
2022/08/17 01:16:09;;;;;;;9.30;7.20;;;20.80;71.70;;;;;;5047318;28;20466;-71
2022/08/17 01:18:35;;;;;;;7.70;6.40;;;20.80;71.70;;;;;;5039877;28;20485;-71
2022/08/17 01:21:07;;;;;;;8.97;6.67;;;20.80;71.00;;;;;;5047034;28;20428;-72
2022/08/17 01:23:33;;;;;;;9.83;7.57;;;20.80;71.00;;;;;;5044511;28;20477;-72
2022/08/17 01:26:00;;;;;;;11.33;7.70;;;20.70;71.10;;;;;;5040287;28;22262;-70
2022/08/17 01:28:32;;;;;;;10.60;7.77;;;20.70;71.60;;;;;;5041046;28;20268;-70
2022/08/17 01:31:04;;;;;;;9.03;7.33;;;20.70;71.60;;;;;;5039479;28;20436;-71
2022/08/17 01:33:29;;;;;;;11.40;7.63;;;20.50;71.80;;;;;;5043641;28;20442;-71
2022/08/17 01:35:55;;;;;;;10.43;6.57;;;20.30;72.60;;;;;;5046687;28;21253;-73
2022/08/17 01:38:22;;;;;;;10.00;7.70;;;20.30;72.40;;;;;;5043269;28;20209;-70
2022/08/17 01:40:57;;;;;;;9.20;7.47;;;20.30;72.40;;;;;;5042628;28;20560;-72
2022/08/17 01:43:28;;;;;;;10.47;6.57;;;20.20;72.90;;;;;;5037627;28;20464;-71
2022/08/17 01:45:55;;;;;;;9.07;7.30;;;20.30;73.00;;;;;;5040823;28;20414;-71
2022/08/17 01:48:21;;;;;;;8.07;6.87;;;20.20;72.70;;;;;;5040501;28;20468;-71
2022/08/17 01:50:50;;;;;;;11.60;7.00;;;20.20;73.00;;;;;;5039274;28;20430;-71
2022/08/17 01:53:20;;;;;;;12.20;7.20;;;20.20;72.70;;;;;;5042841;28;20431;-71
2022/08/17 01:55:50;;;;;;;7.73;6.87;;;20.30;72.40;;;;;;5038978;28;20416;-72
2022/08/17 01:58:16;;;;;;;10.10;7.00;;;20.20;72.90;;;;;;5045297;28;20474;-71
2022/08/17 02:00:43;;;;;;;8.37;6.97;;;20.30;72.90;;;;;;5034679;28;20905;-72
2022/08/17 02:03:09;;;;;;;11.20;6.67;;;20.30;72.90;;;;;;5039960;28;20460;-71
2022/08/17 02:05:35;;;;;;;12.80;7.57;;;20.40;72.40;;;;;;5036168;28;20448;-71
2022/08/17 02:08:02;;;;;;;7.60;6.50;;;20.30;72.60;;;;;;5040917;28;20206;-73
2022/08/17 02:10:29;;;;;;;8.30;7.17;;;20.30;72.70;;;;;;5034674;28;20425;-71
2022/08/17 02:12:55;;;;;;;10.77;7.07;;;20.30;72.70;;;;;;5043446;28;21092;-72
2022/08/17 02:15:21;;;;;;;9.23;7.03;;;20.20;72.60;;;;;;5036537;28;20431;-70
2022/08/17 02:17:47;;;;;;;10.40;6.90;;;20.20;72.70;;;;;;5045390;28;21000;-70
2022/08/17 02:20:13;;;;;;;10.67;6.40;;;20.20;72.90;;;;;;5036118;28;20437;-71
2022/08/17 02:22:41;;;;;;;10.90;7.73;;;20.20;72.90;;;;;;5042848;28;20578;-72
2022/08/17 02:25:09;;;;;;;10.03;7.87;;;20.30;73.00;;;;;;5039787;28;20424;-70
2022/08/17 02:27:37;;;;;;;10.13;7.40;;;20.20;73.00;;;;;;5039617;28;21300;-71
2022/08/17 02:30:09;;;;;;;9.20;7.70;;;20.20;73.20;;;;;;5044383;28;20953;-70
2022/08/17 02:32:35;;;;;;;10.03;7.53;;;20.10;73.30;;;;;;5043095;28;20430;-72
2022/08/17 02:35:02;;;;;;;12.10;7.83;;;20.00;73.30;;;;;;5043868;28;20489;-72
2022/08/17 02:37:28;;;;;;;13.23;8.00;;;19.90;73.60;;;;;;5037084;28;20448;-71
2022/08/17 02:39:58;;;;;;;9.27;6.70;;;20.00;74.00;;;;;;5047409;28;20506;-71
2022/08/17 02:42:30;;;;;;;9.27;6.93;;;20.00;74.00;;;;;;5040993;28;20463;-71
2022/08/17 02:44:56;;;;;;;8.73;6.80;;;20.20;73.60;;;;;;5042788;28;20423;-70
2022/08/17 02:47:21;;;;;;;10.40;6.50;;;20.30;72.70;;;;;;5045724;28;20431;-71
2022/08/17 02:49:47;;;;;;;10.30;7.57;;;20.20;72.40;;;;;;5044064;28;20190;-71
2022/08/17 02:52:12;;;;;;;10.73;7.60;;;20.20;72.60;;;;;;5036377;28;20276;-71
2022/08/17 02:54:38;;;;;;;12.33;7.67;;;20.10;73.30;;;;;;5038703;28;20235;-73
2022/08/17 02:57:04;;;;;;;11.33;8.40;;;20.20;73.50;;;;;;5039250;28;20272;-73
2022/08/17 02:59:29;;;;;;;10.67;8.37;;;20.30;73.20;;;;;;5043172;28;20290;-72
2022/08/17 03:01:55;;;;;;;12.93;8.03;;;20.20;73.70;;;;;;5038580;28;20209;-72
2022/08/17 03:04:21;;;;;;;11.57;7.67;;;20.10;74.00;;;;;;5042852;28;20716;-72
2022/08/17 03:06:46;;;;;;;8.87;7.07;;;20.00;74.20;;;;;;5040236;28;20181;-71
2022/08/17 03:09:15;;;;;;;9.60;7.30;;;20.00;74.20;;;;;;5043046;28;20205;-72
2022/08/17 03:11:41;;;;;;;11.97;8.43;;;20.00;74.00;;;;;;5043760;28;20182;-73
2022/08/17 03:14:07;;;;;;;14.47;10.33;;;20.00;74.20;;;;;;5042468;28;20584;-72
2022/08/17 03:16:35;;;;;;;12.93;8.40;;;20.00;74.30;;;;;;5039684;28;20182;-71
2022/08/17 03:19:01;;;;;;;12.83;8.80;;;20.10;74.20;;;;;;5040162;28;20217;-72
2022/08/17 03:21:27;;;;;;;10.70;8.17;;;20.20;73.60;;;;;;5039650;28;20448;-72
2022/08/17 03:23:52;;;;;;;11.40;7.73;;;20.30;73.50;;;;;;5041572;28;20264;-72
2022/08/17 03:26:18;;;;;;;14.43;7.90;;;20.30;73.20;;;;;;5038355;28;20193;-71
2022/08/17 03:28:44;;;;;;;10.23;7.70;;;20.30;73.30;;;;;;5046199;28;20702;-70
2022/08/17 03:31:09;;;;;;;12.77;7.63;;;20.30;73.00;;;;;;5046599;28;20183;-72
2022/08/17 03:33:35;;;;;;;12.50;7.97;;;20.30;73.30;;;;;;5044311;28;20663;-72
2022/08/17 03:36:00;;;;;;;11.60;8.03;;;20.20;74.00;;;;;;5050112;28;20184;-71
2022/08/17 03:38:26;;;;;;;10.73;8.20;;;19.90;74.90;;;;;;5044165;28;20217;-71
2022/08/17 03:40:52;;;;;;;10.50;8.10;;;19.80;75.20;;;;;;5042387;28;20550;-72
2022/08/17 03:43:20;;;;;;;11.50;8.20;;;19.70;75.70;;;;;;5042933;28;20213;-71
2022/08/17 03:57:06;;;;;;;16.30;8.80;;;19.30;77.10;;;;;;5041560;28;20411;-71
2022/08/17 03:59:32;;;;;;;11.63;8.40;;;19.30;77.40;;;;;;5043874;28;20994;-72
2022/08/17 04:02:06;;;;;;;12.67;7.70;;;19.30;77.60;;;;;;5043538;28;20511;-71
2022/08/17 04:04:32;;;;;;;10.93;7.87;;;19.20;77.40;;;;;;5040648;28;20889;-71
2022/08/17 04:06:58;;;;;;;9.33;7.50;;;19.20;77.70;;;;;;5042020;28;20424;-72
2022/08/17 04:09:23;;;;;;;13.00;8.53;;;19.20;77.60;;;;;;5039621;28;20799;-72
2022/08/17 04:11:49;;;;;;;12.70;9.10;;;19.40;77.10;;;;;;5037167;28;20186;-72
2022/08/17 04:14:15;;;;;;;10.77;7.90;;;19.40;77.00;;;;;;5043724;28;20331;-72
2022/08/17 04:16:40;;;;;;;11.20;8.00;;;19.40;76.80;;;;;;5034495;28;20181;-71
2022/08/17 04:19:06;;;;;;;11.90;7.00;;;19.50;75.80;;;;;;5043434;28;20224;-72
2022/08/17 04:21:33;;;;;;;9.20;6.40;;;19.60;75.40;;;;;;5039973;28;20261;-72
2022/08/17 04:23:58;;;;;;;9.63;6.80;;;19.70;75.10;;;;;;5044233;28;20217;-73
2022/08/17 04:26:24;;;;;;;10.87;8.03;;;19.60;75.10;;;;;;5033913;28;20605;-71
2022/08/17 04:28:50;;;;;;;10.30;7.80;;;19.70;74.90;;;;;;5042571;28;20210;-72
2022/08/17 04:31:16;;;;;;;10.87;7.33;;;19.70;75.50;;;;;;5042853;28;20193;-72
2022/08/17 04:33:43;;;;;;;10.70;8.50;;;19.60;75.80;;;;;;5048366;28;20233;-72
2022/08/17 04:36:10;;;;;;;13.70;9.10;;;19.70;75.40;;;;;;5041194;28;20707;-72
2022/08/17 04:38:38;;;;;;;10.57;7.47;;;19.80;75.10;;;;;;5039658;28;20462;-71
2022/08/17 04:43:53;;;;;;;9.67;7.50;;;19.70;75.40;;;;;;5041162;28;20459;-72
2022/08/17 04:46:25;;;;;;;12.63;8.17;;;19.60;75.50;;;;;;5047350;28;20435;-71
2022/08/17 04:48:53;;;;;;;9.57;7.90;;;19.60;75.80;;;;;;5037470;28;20467;-71
2022/08/17 04:51:29;;;;;;;9.33;6.73;;;19.70;75.40;;;;;;5039190;28;20997;-72
2022/08/17 04:53:59;;;;;;;11.77;6.83;;;19.70;75.20;;;;;;5042610;28;20420;-72
2022/08/17 04:56:26;;;;;;;12.73;7.93;;;19.80;74.50;;;;;;5044329;28;20429;-70
2022/08/17 04:58:55;;;;;;;12.50;9.03;;;19.90;74.50;;;;;;5045224;28;20645;-71
2022/08/17 05:01:22;;;;;;;10.37;7.63;;;20.00;74.30;;;;;;5046095;28;20572;-70
2022/08/17 05:03:48;;;;;;;10.37;7.70;;;20.00;74.20;;;;;;5037206;28;20475;-70
2022/08/17 05:06:13;;;;;;;10.13;7.50;;;20.10;73.90;;;;;;5046105;28;20418;-71
2022/08/17 05:08:39;;;;;;;9.50;7.60;;;20.10;73.90;;;;;;5034528;28;20213;-70
2022/08/17 05:11:05;;;;;;;10.13;7.53;;;20.10;73.60;;;;;;5039251;28;20191;-70
2022/08/17 05:13:31;;;;;;;11.53;7.60;;;20.20;74.00;;;;;;5033871;28;20268;-67
2022/08/17 05:15:59;;;;;;;13.23;9.13;;;20.30;73.50;;;;;;5045280;28;20507;-70
2022/08/17 05:18:26;;;;;;;9.10;7.17;;;20.30;73.20;;;;;;5037480;28;20228;-71
2022/08/17 05:20:52;;;;;;;11.60;7.77;;;20.30;73.20;;;;;;5042008;28;20464;-71
2022/08/17 05:23:20;;;;;;;15.27;8.00;;;20.40;72.90;;;;;;5041828;28;20468;-71
2022/08/17 05:25:50;;;;;;;14.27;8.97;;;20.50;72.60;;;;;;5040358;28;20498;-71
2022/08/17 05:28:18;;;;;;;12.53;9.67;;;20.40;72.90;;;;;;5035560;28;20561;-71
2022/08/17 05:30:45;;;;;;;14.70;8.77;;;20.30;73.50;;;;;;5040459;28;20516;-71
2022/08/17 05:33:15;;;;;;;15.67;7.63;;;20.40;73.50;;;;;;5049275;28;20899;-72
2022/08/17 05:35:43;;;;;;;12.47;9.00;;;20.50;73.00;;;;;;5038991;28;20520;-72
2022/08/17 05:38:09;;;;;;;12.73;8.40;;;20.50;73.00;;;;;;5046787;28;20998;-71
2022/08/17 05:40:36;;;;;;;14.40;9.10;;;20.60;72.70;;;;;;5036543;28;20916;-72
2022/08/17 05:43:10;;;;;;;12.77;9.33;;;20.60;72.40;;;;;;5038500;28;20475;-72
2022/08/17 05:45:40;;;;;;;16.23;10.80;;;20.60;72.40;;;;;;5037161;28;20431;-72
2022/08/17 05:48:06;;;;;;;17.80;10.80;;;20.60;73.60;;;;;;5037993;28;20542;-71
2022/08/17 05:50:44;;;;;;;23.07;10.90;;;20.70;74.20;;;;;;5034396;28;20456;-72
2022/08/17 05:53:31;;;;;;;13.20;9.67;;;20.70;73.70;;;;;;5042043;28;20420;-70
2022/08/17 05:56:12;;;;;;;11.93;9.17;;;20.90;73.30;;;;;;5036545;28;20448;-73
2022/08/17 05:59:15;;;;;;;13.10;9.13;;;21.00;72.30;;;;;;5048806;28;20460;-71
2022/08/17 06:01:59;;;;;;;14.43;9.20;;;21.10;71.70;;;;;;5040298;28;20424;-72
2022/08/17 06:04:58;;;;;;;15.00;9.03;;;21.20;71.40;;;;;;5035397;28;20425;-71
2022/08/17 06:07:48;;;;;;;14.73;8.93;;;21.40;70.70;;;;;;5045244;28;20504;-72
2022/08/17 06:10:22;;;;;;;11.97;8.83;;;21.50;70.20;;;;;;5033009;28;21000;-73
2022/08/17 06:13:15;;;;;;;14.93;9.83;;;21.70;69.50;;;;;;5037720;28;20430;-73
2022/08/17 06:16:04;;;;;;;14.70;8.80;;;21.70;69.20;;;;;;5044332;28;20424;-71
2022/08/17 06:18:45;;;;;;;11.20;8.97;;;21.70;69.20;;;;;;5043863;28;20502;-71
2022/08/17 06:21:14;;;;;;;11.57;8.77;;;21.80;69.20;;;;;;5044309;28;20962;-72
2022/08/17 06:23:52;;;;;;;20.43;8.80;;;21.80;69.20;;;;;;5045703;28;20473;-71
2022/08/17 06:26:28;;;;;;;15.13;9.00;;;21.90;69.20;;;;;;5047642;28;20414;-71
2022/08/17 06:29:01;;;;;;;26.23;12.80;;;22.00;68.90;;;;;;5037445;28;20462;-73
2022/08/17 06:31:33;;;;;;;18.77;11.30;;;22.10;69.10;;;;;;5042167;28;20426;-72
2022/08/17 06:34:02;;;;;;;18.23;9.60;;;22.10;69.50;;;;;;5040500;28;20484;-71
2022/08/17 06:36:54;;;;;;;18.10;10.23;;;22.20;69.20;;;;;;5035459;28;20941;-72
2022/08/17 06:39:47;;;;;;;14.73;9.50;;;22.20;68.90;;;;;;5038679;28;20474;-72
2022/08/17 06:42:24;;;;;;;17.20;10.30;;;22.30;68.20;;;;;;5039111;28;20503;-70
2022/08/17 06:45:05;;;;;;;18.60;11.70;;;22.20;67.70;;;;;;5037697;28;20427;-73
2022/08/17 06:47:47;;;;;;;18.60;11.17;;;22.10;69.70;;;;;;5033186;28;20448;-72
2022/08/17 06:50:26;;;;;;;17.93;11.90;;;21.90;70.70;;;;;;5044343;28;20417;-71
2022/08/17 06:53:18;;;;;;;22.37;10.93;;;21.90;71.00;;;;;;5035643;28;20473;-71
2022/08/17 06:55:49;;;;;;;17.90;11.50;;;22.30;70.10;;;;;;5044277;28;20424;-72
2022/08/17 06:58:21;;;;;;;16.53;10.50;;;22.50;68.90;;;;;;5044783;28;20492;-72
2022/08/17 07:00:49;;;;;;;17.73;10.30;;;22.60;68.60;;;;;;5037672;28;20518;-72
2022/08/17 07:03:17;;;;;;;15.60;11.30;;;22.80;67.90;;;;;;5048785;28;20467;-72
2022/08/17 07:06:14;;;;;;;20.97;11.07;;;23.00;67.30;;;;;;5035776;28;20476;-71
2022/08/17 07:08:52;;;;;;;20.37;10.40;;;23.10;67.00;;;;;;5040342;28;20503;-70
2022/08/17 07:11:46;;;;;;;16.83;10.73;;;23.20;66.40;;;;;;5046489;28;20413;-71
2022/08/17 07:14:37;;;;;;;19.90;10.50;;;23.30;66.10;;;;;;5042694;28;20448;-72
2022/08/17 07:17:13;;;;;;;16.10;9.87;;;23.30;65.80;;;;;;5046994;28;20507;-72
2022/08/17 07:19:44;;;;;;;16.70;9.70;;;23.40;65.70;;;;;;5036412;28;20489;-73
2022/08/17 07:22:23;;;;;;;15.73;9.60;;;23.60;65.40;;;;;;5040430;28;20560;-72
2022/08/17 07:24:57;;;;;;;17.13;10.17;;;23.60;64.70;;;;;;5045045;28;20433;-71
2022/08/17 07:27:30;;;;;;;14.60;8.90;;;23.70;63.40;;;;;;5046141;28;20429;-70
2022/08/17 07:30:20;;;;;;;11.30;8.17;;;23.80;63.50;;;;;;5043462;28;20426;-73
2022/08/17 07:32:56;;;;;;;10.80;8.27;;;24.10;62.50;;;;;;5043111;28;20433;-71
2022/08/17 07:35:28;;;;;;;12.23;9.10;;;24.20;60.90;;;;;;5047866;28;20436;-73
2022/08/17 07:38:12;;;;;;;16.10;10.80;;;24.30;60.60;;;;;;5043976;28;21041;-71
2022/08/17 07:40:40;;;;;;;11.80;8.50;;;24.40;60.30;;;;;;5047621;28;20421;-71
2022/08/17 07:43:38;;;;;;;14.03;8.93;;;24.40;60.00;;;;;;5041322;28;21181;-72
2022/08/17 07:49:08;;;;;;;11.73;8.27;;;24.30;60.30;;;;;;5023271;28;20506;-71
2022/08/17 07:51:56;;;;;;;21.30;9.83;;;24.40;60.10;;;;;;5030215;28;20421;-71
2022/08/17 07:54:26;;;;;;;13.23;9.20;;;24.60;59.90;;;;;;5016478;28;20232;-72
2022/08/17 07:56:59;;;;;;;15.33;9.03;;;24.80;59.50;;;;;;5016582;28;20475;-72
2022/08/17 07:59:29;;;;;;;15.80;9.40;;;24.90;59.30;;;;;;5028082;28;20498;-71
2022/08/17 08:01:57;;;;;;;11.37;8.43;;;24.90;58.70;;;;;;5017616;28;20798;-71
2022/08/17 08:04:26;;;;;;;12.97;8.83;;;25.00;58.80;;;;;;5010629;28;20414;-72
2022/08/17 08:06:53;;;;;;;11.97;8.80;;;25.20;58.40;;;;;;5022200;28;20933;-72
2022/08/17 08:09:35;;;;;;;13.23;8.53;;;25.30;57.80;;;;;;5025913;28;20506;-70
2022/08/17 08:12:23;;;;;;;11.97;9.00;;;25.20;57.80;;;;;;5018551;28;20418;-71
2022/08/17 08:15:08;;;;;;;13.90;8.27;;;25.30;57.80;;;;;;5014518;28;20527;-70
2022/08/17 08:17:44;;;;;;;17.53;10.53;;;25.30;57.40;;;;;;5015879;28;20599;-71
2022/08/17 08:20:10;;;;;;;13.83;8.47;;;25.00;58.50;;;;;;5022293;28;20425;-72
2022/08/17 08:22:47;;;;;;;11.27;8.70;;;24.80;59.10;;;;;;5044128;28;20832;-72
2022/08/17 08:25:24;;;;;;;17.77;8.90;;;25.00;58.90;;;;;;5035965;28;20621;-71
2022/08/17 08:28:14;;;;;;;13.90;8.43;;;25.10;58.80;;;;;;5043423;28;20924;-73
2022/08/17 08:30:46;;;;;;;12.70;9.87;;;25.20;58.10;;;;;;5040690;28;20482;-71
2022/08/17 08:33:37;;;;;;;12.67;8.40;;;25.30;57.70;;;;;;5040426;28;20935;-72
2022/08/17 08:36:22;;;;;;;15.87;9.87;;;25.40;58.00;;;;;;5043119;28;20832;-72
2022/08/17 08:39:02;;;;;;;10.90;8.13;;;25.60;57.70;;;;;;5044726;28;20750;-72
2022/08/17 08:41:47;;;;;;;13.40;8.50;;;25.70;57.20;;;;;;5042027;28;20495;-72
2022/08/17 08:44:32;;;;;;;10.53;8.10;;;25.90;56.60;;;;;;5036930;28;20536;-73
2022/08/17 08:47:21;;;;;;;12.60;8.93;;;25.90;56.50;;;;;;5043146;28;20428;-72
2022/08/17 08:49:47;;;;;;;11.33;8.33;;;26.00;56.60;;;;;;5046770;28;20528;-72
2022/08/17 08:52:36;;;;;;;16.47;8.60;;;26.10;56.50;;;;;;5043380;28;20899;-73
2022/08/17 08:55:09;;;;;;;17.10;8.93;;;26.20;56.10;;;;;;5042266;28;20214;-73
2022/08/17 08:57:45;;;;;;;11.70;8.17;;;26.10;55.70;;;;;;5036923;28;20432;-73
2022/08/17 09:00:16;;;;;;;12.30;8.30;;;26.10;56.50;;;;;;5042324;28;20448;-72
2022/08/17 09:03:20;;;;;;;11.57;8.03;;;26.20;56.50;;;;;;5035195;28;20498;-73
2022/08/17 09:06:15;;;;;;;11.43;8.63;;;26.30;55.80;;;;;;5029514;28;20426;-72
2022/08/17 09:09:16;;;;;;;10.80;8.03;;;26.30;55.70;;;;;;5034701;28;20599;-73
2022/08/17 09:11:53;;;;;;;10.40;7.70;;;26.20;55.40;;;;;;5036444;28;20497;-72
2022/08/17 09:14:31;;;;;;;11.13;7.77;;;26.20;55.30;;;;;;5035371;28;20430;-72
2022/08/17 09:17:15;;;;;;;13.03;8.43;;;26.20;55.60;;;;;;5035041;28;20917;-72
2022/08/17 09:19:50;;;;;;;17.80;8.60;;;26.20;56.40;;;;;;5044519;28;20458;-72
2022/08/17 09:22:40;;;;;;;11.70;8.60;;;26.20;58.10;;;;;;5037420;28;20460;-71
2022/08/17 09:25:09;;;;;;;15.70;8.73;;;26.10;59.60;;;;;;5047249;28;20501;-72
2022/08/17 09:27:53;;;;;;;10.07;8.07;;;26.10;59.50;;;;;;5036058;28;20437;-71
2022/08/17 09:30:20;;;;;;;13.63;8.90;;;26.10;59.10;;;;;;5036183;28;20425;-71
2022/08/17 09:32:50;;;;;;;18.50;8.80;;;26.00;60.30;;;;;;5043306;28;20826;-72
2022/08/17 09:35:18;;;;;;;15.20;8.90;;;25.60;61.00;;;;;;5036164;28;20439;-73
2022/08/17 09:38:08;;;;;;;17.17;9.07;;;25.50;60.90;;;;;;5044589;28;20476;-72
2022/08/17 09:41:10;;;;;;;13.17;9.40;;;25.40;62.60;;;;;;5039766;28;21162;-72
2022/08/17 09:44:06;;;;;;;11.77;8.70;;;25.30;64.20;;;;;;5037408;28;20524;-73
2022/08/17 09:46:42;;;;;;;14.43;9.60;;;25.10;64.80;;;;;;5036765;28;20435;-71
2022/08/17 09:49:20;;;;;;;13.47;10.30;;;25.00;65.70;;;;;;5041929;28;20799;-72
2022/08/17 09:52:02;;;;;;;17.93;10.20;;;24.80;67.20;;;;;;5043678;28;20458;-72
2022/08/17 09:54:30;;;;;;;18.80;9.30;;;24.70;69.70;;;;;;5034028;28;20462;-72
2022/08/17 09:57:17;;;;;;;12.67;9.17;;;24.70;71.70;;;;;;5041317;28;20469;-73
2022/08/17 10:00:17;;;;;;;11.20;8.67;;;24.80;72.30;;;;;;5035714;28;20442;-72
2022/08/17 10:03:08;;;;;;;12.73;9.70;;;24.60;69.80;;;;;;5045378;28;20474;-73
2022/08/17 10:05:56;;;;;;;15.70;10.23;;;24.20;73.70;;;;;;5042595;28;20492;-72
2022/08/17 10:08:35;;;;;;;16.13;10.07;;;24.10;75.70;;;;;;5043424;28;20777;-72
2022/08/17 10:11:07;;;;;;;15.47;8.40;;;23.90;72.00;;;;;;5046183;28;20420;-73
2022/08/17 10:13:42;;;;;;;14.10;7.93;;;23.80;69.40;;;;;;5037439;28;20785;-73
2022/08/17 10:16:15;;;;;;;10.87;7.60;;;23.80;68.50;;;;;;5036313;28;20458;-72
2022/08/17 10:18:50;;;;;;;10.93;7.40;;;24.00;67.50;;;;;;5039197;28;20472;-73
2022/08/17 10:27:11;;;;;;;12.40;7.57;;;24.40;66.10;;;;;;5032805;28;20423;-72
2022/08/17 10:30:03;;;;;;;10.90;7.50;;;24.50;64.50;;;;;;5031468;28;20456;-72
2022/08/17 10:32:36;;;;;;;12.03;8.03;;;24.60;65.40;;;;;;5043196;28;20531;-72
2022/08/17 10:35:24;;;;;;;12.50;7.80;;;24.80;66.90;;;;;;5044130;28;20440;-72
2022/08/17 10:37:59;;;;;;;10.67;7.63;;;24.90;67.50;;;;;;5044840;28;20830;-72
2022/08/17 10:40:53;;;;;;;10.50;7.60;;;25.00;65.40;;;;;;5046422;28;20479;-73
2022/08/17 10:43:31;;;;;;;9.90;6.83;;;25.10;64.40;;;;;;5043468;28;21037;-73
2022/08/17 10:46:14;;;;;;;9.87;7.10;;;25.20;63.10;;;;;;5044701;28;20429;-72
2022/08/17 10:48:41;;;;;;;15.67;7.53;;;25.30;62.30;;;;;;5042510;28;20511;-72
2022/08/17 10:51:36;;;;;;;8.70;7.17;;;25.40;62.20;;;;;;5042893;28;20449;-71
2022/08/17 10:54:26;;;;;;;7.93;6.63;;;25.40;61.50;;;;;;5045224;28;20486;-73
2022/08/17 10:56:54;;;;;;;8.07;6.30;;;25.40;60.10;;;;;;5044872;28;20425;-72
2022/08/17 10:59:42;;;;;;;8.97;6.87;;;25.30;61.20;;;;;;5041619;28;20453;-72
2022/08/17 11:02:14;;;;;;;8.67;6.60;;;25.40;60.30;;;;;;5039220;28;20469;-73
2022/08/17 11:05:07;;;;;;;11.90;6.50;;;25.30;60.30;;;;;;5040509;28;21103;-72
2022/08/17 11:07:35;;;;;;;9.40;6.60;;;25.30;61.50;;;;;;5043804;28;20920;-72
2022/08/17 11:10:33;;;;;;;9.33;7.10;;;25.20;63.90;;;;;;5037643;28;20430;-72
2022/08/17 11:13:21;;;;;;;8.50;6.47;;;25.00;63.90;;;;;;5043464;28;20425;-72
2022/08/17 11:15:59;;;;;;;12.00;7.60;;;25.00;60.90;;;;;;5034674;28;20446;-72
2022/08/17 11:19:08;;;;;;;9.70;6.20;;;24.70;63.40;;;;;;5044148;28;20480;-73
2022/08/17 11:21:52;;;;;;;8.23;6.60;;;24.40;64.70;;;;;;5042591;28;20427;-73
2022/08/17 11:24:47;;;;;;;9.60;6.73;;;24.20;66.30;;;;;;5043153;28;20423;-73
2022/08/17 11:27:32;;;;;;;7.57;6.17;;;24.10;66.60;;;;;;5042855;28;20429;-71
2022/08/17 11:30:25;;;;;;;8.13;6.50;;;24.00;67.20;;;;;;5041151;28;20426;-74
2022/08/17 11:32:51;;;;;;;11.90;7.50;;;23.90;68.20;;;;;;5039759;28;20871;-73
2022/08/17 11:35:20;;;;;;;8.77;6.50;;;24.00;67.70;;;;;;5041507;28;20417;-72
2022/08/17 11:38:17;;;;;;;10.70;7.07;;;24.00;67.00;;;;;;5036351;28;20460;-72
2022/08/17 11:41:13;;;;;;;11.13;7.87;;;23.90;67.50;;;;;;5045414;28;20418;-72
2022/08/17 11:44:05;;;;;;;10.90;7.07;;;23.90;68.50;;;;;;5040772;28;20464;-75
2022/08/17 11:53:36;;;;;;;9.13;6.13;;;23.60;68.50;;;;;;5019850;28;20419;-73
2022/08/17 11:56:10;;;;;;;7.60;6.20;;;23.70;68.80;;;;;;5048273;28;20423;-72
2022/08/17 11:58:42;;;;;;;9.90;6.60;;;23.70;68.80;;;;;;5042303;28;20464;-72
2022/08/17 12:01:11;;;;;;;13.03;6.73;;;23.90;68.50;;;;;;5039439;28;20422;-72
2022/08/17 12:03:37;;;;;;;10.20;7.10;;;24.00;68.50;;;;;;5044394;28;20455;-72
2022/08/17 12:06:16;;;;;;;8.30;6.60;;;24.20;67.30;;;;;;5038211;28;20475;-72
2022/08/17 12:08:48;;;;;;;7.77;6.20;;;24.40;65.80;;;;;;5044184;28;20703;-72
2022/08/17 12:11:23;;;;;;;10.50;7.27;;;24.40;66.70;;;;;;5039399;28;20427;-72
2022/08/17 12:13:55;;;;;;;11.90;6.27;;;24.00;71.70;;;;;;5043056;28;20604;-73
2022/08/17 12:16:21;;;;;;;11.53;7.17;;;23.90;72.00;;;;;;5040684;28;20445;-73
2022/08/17 12:19:01;;;;;;;11.03;7.70;;;24.10;71.40;;;;;;5041104;28;20478;-72
2022/08/17 12:21:36;;;;;;;8.30;6.60;;;24.10;71.70;;;;;;5042011;28;20271;-74
2022/08/17 12:24:21;;;;;;;9.50;6.60;;;24.50;70.40;;;;;;5041295;28;20489;-73
2022/08/17 12:27:01;;;;;;;11.13;7.80;;;24.80;69.40;;;;;;5048038;28;20419;-73
2022/08/17 12:29:28;;;;;;;12.93;6.60;;;25.00;68.50;;;;;;5049708;28;20578;-72
2022/08/17 12:31:54;;;;;;;11.30;7.13;;;25.30;67.00;;;;;;5048729;28;20426;-71
2022/08/17 12:34:39;;;;;;;9.37;7.00;;;25.40;66.70;;;;;;5036636;28;20471;-73
2022/08/17 12:37:14;;;;;;;8.83;6.83;;;25.60;65.80;;;;;;5038692;28;20418;-72
2022/08/17 12:39:59;;;;;;;14.57;7.40;;;25.90;65.10;;;;;;5035529;28;20449;-72
2022/08/17 12:43:05;;;;;;;10.30;6.70;;;25.70;63.70;;;;;;5042749;28;20600;-72
2022/08/17 12:45:34;;;;;;;7.20;6.03;;;25.80;63.50;;;;;;5035714;28;20485;-72
2022/08/17 12:48:06;;;;;;;7.47;5.90;;;25.90;60.10;;;;;;5041288;28;21165;-72
2022/08/17 12:50:34;;;;;;;11.97;6.87;;;26.00;60.30;;;;;;5044034;28;20503;-72
2022/08/17 12:53:00;;;;;;;9.27;7.07;;;25.70;61.00;;;;;;5042105;28;20421;-74
2022/08/17 12:55:27;;;;;;;7.60;6.60;;;25.60;61.50;;;;;;5042229;28;20840;-72
2022/08/17 12:57:55;;;;;;;9.80;7.27;;;25.50;60.40;;;;;;5037376;28;20462;-73
2022/08/17 13:00:26;;;;;;;12.03;7.20;;;25.30;60.10;;;;;;5042890;28;20430;-72
2022/08/17 13:02:57;;;;;;;13.37;7.10;;;25.20;61.50;;;;;;5041840;28;20511;-73
2022/08/17 13:05:27;;;;;;;8.30;6.10;;;25.50;60.90;;;;;;5042084;28;20466;-72
2022/08/17 13:07:54;;;;;;;9.63;6.40;;;26.00;56.00;;;;;;5036364;28;20559;-72
2022/08/17 13:10:25;;;;;;;9.70;6.30;;;26.60;55.20;;;;;;5039255;28;20430;-73
2022/08/17 13:12:51;;;;;;;7.90;6.50;;;27.00;53.80;;;;;;5039217;28;20434;-72
2022/08/17 13:15:44;;;;;;;11.40;7.70;;;27.30;52.50;;;;;;5043849;28;20506;-73
2022/08/17 13:18:39;;;;;;;8.90;6.37;;;27.30;50.90;;;;;;5042771;28;20569;-73
2022/08/17 13:21:22;;;;;;;8.30;6.50;;;27.70;49.70;;;;;;5032538;28;20522;-73
2022/08/17 13:24:04;;;;;;;9.63;6.50;;;27.90;52.00;;;;;;5042803;28;20561;-74
2022/08/17 13:26:40;;;;;;;11.70;6.53;;;28.00;52.00;;;;;;5031154;28;20416;-74
2022/08/17 13:29:18;;;;;;;12.47;6.70;;;28.40;49.40;;;;;;5034643;28;20488;-73
2022/08/17 13:31:43;;;;;;;11.13;7.13;;;27.90;50.70;;;;;;5037716;28;20451;-74
2022/08/17 13:34:44;;;;;;;11.57;7.10;;;28.10;50.30;;;;;;5039284;28;20509;-75
2022/08/17 13:37:25;;;;;;;9.60;6.20;;;28.50;48.70;;;;;;5039921;28;20181;-73
2022/08/17 13:39:55;;;;;;;11.10;6.07;;;28.50;48.20;;;;;;5034991;28;20774;-73
2022/08/17 13:42:43;;;;;;;7.50;5.97;;;28.60;47.70;;;;;;5042490;28;20497;-73
2022/08/17 13:45:30;;;;;;;10.47;6.60;;;29.40;46.10;;;;;;5032913;28;20518;-73